createdAt,value
2019-02-24T00:02:21.589Z,2.50
2019-02-24T00:05:09.205Z,2.43
2019-02-24T00:07:56.801Z,2.57
2019-02-24T00:10:44.734Z,2.10
2019-02-24T00:13:32.649Z,2.73
2019-02-24T00:16:20.206Z,2.60
2019-02-24T00:19:07.879Z,2.00
2019-02-24T00:21:55.308Z,2.00
2019-02-24T00:24:43.012Z,2.50
2019-02-24T00:27:30.620Z,2.50
2019-02-24T00:30:18.030Z,2.33
2019-02-24T00:33:05.519Z,3.30
2019-02-24T00:35:52.893Z,2.50
2019-02-24T00:38:40.087Z,3.30
2019-02-24T00:41:27.945Z,2.43
2019-02-24T00:44:15.290Z,2.47
2019-02-24T00:47:02.965Z,3.07
2019-02-24T00:49:50.174Z,2.80
2019-02-24T00:52:37.995Z,3.80
2019-02-24T00:55:25.279Z,2.30
2019-02-24T00:58:16.147Z,2.50
2019-02-24T01:01:02.301Z,2.37
2019-02-24T01:03:49.777Z,2.37
2019-02-24T01:06:37.323Z,2.37
2019-02-24T01:09:24.630Z,2.47
2019-02-24T01:12:11.701Z,2.50
2019-02-24T01:14:59.410Z,2.10
2019-02-24T01:17:46.807Z,2.30
2019-02-24T01:20:34.384Z,2.40
2019-02-24T01:23:21.929Z,2.43
2019-02-24T01:26:10.318Z,2.17
2019-02-24T01:28:57.947Z,2.43
2019-02-24T01:31:45.503Z,2.30
2019-02-24T01:34:32.810Z,2.17
2019-02-24T01:37:20.182Z,2.60
2019-02-24T01:40:07.858Z,2.50
2019-02-24T01:42:55.380Z,2.27
2019-02-24T01:45:43.307Z,2.30
2019-02-24T01:48:30.645Z,2.33
2019-02-24T01:51:18.345Z,2.80
2019-02-24T01:54:06.146Z,2.77
2019-02-24T01:56:53.433Z,2.37
2019-02-24T01:59:41.057Z,2.70
2019-02-24T02:02:28.561Z,2.23
2019-02-24T02:05:16.417Z,2.53
2019-02-24T02:08:03.716Z,2.87
2019-02-24T02:10:51.155Z,2.93
2019-02-24T02:13:38.816Z,2.60
2019-02-24T02:16:26.437Z,2.80
2019-02-24T02:19:14.090Z,2.77
2019-02-24T02:22:01.434Z,2.70
2019-02-24T02:24:49.610Z,2.40
2019-02-24T02:27:37.236Z,2.43
2019-02-24T02:30:25.343Z,2.50
2019-02-24T02:33:12.915Z,2.20
2019-02-24T02:36:00.602Z,2.60
2019-02-24T02:38:48.406Z,2.60
2019-02-24T02:41:35.885Z,2.40
2019-02-24T02:44:23.353Z,2.93
2019-02-24T02:47:10.414Z,2.43
2019-02-24T02:49:57.732Z,2.33
2019-02-24T02:52:45.389Z,2.57
2019-02-24T02:55:33.240Z,2.70
2019-02-24T02:58:20.858Z,3.17
2019-02-24T03:01:07.936Z,2.50
2019-02-24T03:03:55.024Z,2.80
2019-02-24T03:07:00.345Z,5.70
2019-02-24T03:09:47.667Z,2.77
2019-02-24T03:12:35.538Z,2.60
2019-02-24T03:15:23.177Z,3.10
2019-02-24T03:18:10.986Z,2.97
2019-02-24T03:20:58.919Z,2.93
2019-02-24T03:23:47.054Z,2.80
2019-02-24T03:26:34.796Z,2.97
2019-02-24T03:29:22.546Z,3.17
2019-02-24T03:32:10.170Z,2.80
2019-02-24T03:34:57.585Z,2.70
2019-02-24T03:37:44.790Z,2.70
2019-02-24T03:40:31.961Z,2.80
2019-02-24T03:43:19.563Z,2.97
2019-02-24T03:46:07.402Z,3.60
2019-02-24T03:48:54.914Z,3.27
2019-02-24T03:51:42.247Z,3.30
2019-02-24T03:54:29.622Z,4.10
2019-02-24T03:57:17.729Z,3.13
2019-02-24T04:00:05.863Z,5.40
2019-02-24T04:02:53.442Z,3.30
2019-02-24T04:05:40.845Z,3.67
2019-02-24T04:08:28.310Z,4.77
2019-02-24T04:11:15.693Z,3.40
2019-02-24T04:14:03.574Z,2.83
2019-02-24T04:16:51.366Z,3.30
2019-02-24T04:19:38.955Z,3.67
2019-02-24T04:22:26.157Z,4.33
2019-02-24T04:25:13.567Z,3.17
2019-02-24T04:28:01.214Z,3.33
2019-02-24T04:30:48.941Z,2.70
2019-02-24T04:33:36.009Z,3.43
2019-02-24T04:36:23.646Z,4.47
2019-02-24T04:39:11.897Z,5.33
2019-02-24T04:41:59.064Z,4.43
2019-02-24T04:44:46.708Z,3.57
2019-02-24T04:47:34.576Z,3.20
2019-02-24T04:50:22.109Z,3.27
2019-02-24T04:53:09.583Z,3.20
2019-02-24T04:55:56.665Z,3.37
2019-02-24T04:58:43.964Z,2.80
2019-02-24T05:01:31.499Z,3.93
2019-02-24T05:04:18.575Z,3.37
2019-02-24T05:07:06.239Z,3.67
2019-02-24T05:09:54.471Z,2.97
2019-02-24T05:12:41.871Z,3.83
2019-02-24T05:15:29.471Z,3.53
2019-02-24T05:18:16.650Z,3.87
2019-02-24T05:21:03.820Z,5.10
2019-02-24T05:23:50.912Z,4.50
2019-02-24T05:26:38.101Z,4.53
2019-02-24T05:29:26.035Z,4.10
2019-02-24T05:32:13.240Z,4.10
2019-02-24T05:35:00.691Z,3.90
2019-02-24T05:37:48.368Z,3.80
2019-02-24T05:40:35.983Z,3.87
2019-02-24T05:43:23.435Z,4.20
2019-02-24T05:46:10.834Z,4.07
2019-02-24T05:48:58.150Z,3.83
2019-02-24T05:51:45.672Z,4.90
2019-02-24T05:54:33.298Z,3.40
2019-02-24T05:57:20.474Z,3.27
2019-02-24T06:00:08.543Z,5.77
2019-02-24T06:02:55.946Z,4.83
2019-02-24T06:05:43.402Z,3.40
2019-02-24T06:08:31.149Z,4.63
2019-02-24T06:11:18.784Z,3.90
2019-02-24T06:14:06.186Z,5.73
2019-02-24T06:16:53.304Z,3.80
2019-02-24T06:19:40.821Z,3.97
2019-02-24T06:22:28.545Z,3.37
2019-02-24T06:25:15.942Z,4.10
2019-02-24T06:28:03.557Z,5.97
2019-02-24T06:30:50.988Z,5.07
2019-02-24T06:33:38.517Z,4.37
2019-02-24T06:36:26.047Z,4.07
2019-02-24T06:39:13.787Z,3.90
2019-02-24T06:42:01.894Z,5.57
2019-02-24T06:44:49.195Z,4.00
2019-02-24T06:47:36.427Z,4.33
2019-02-24T06:50:24.850Z,5.83
2019-02-24T06:53:12.384Z,5.93
2019-02-24T06:55:59.773Z,6.27
2019-02-24T06:58:47.388Z,5.40
2019-02-24T07:01:34.822Z,4.27
2019-02-24T07:04:22.023Z,5.93
2019-02-24T07:07:09.412Z,5.17
2019-02-24T07:09:57.258Z,4.27
2019-02-24T07:12:44.846Z,5.23
2019-02-24T07:15:32.544Z,5.83
2019-02-24T07:18:20.003Z,4.70
2019-02-24T07:21:07.647Z,5.20
2019-02-24T07:23:55.527Z,5.30
2019-02-24T07:26:43.295Z,5.93
2019-02-24T07:29:30.914Z,7.00
2019-02-24T07:32:18.442Z,6.00
2019-02-24T07:35:06.738Z,5.67
2019-02-24T07:37:53.939Z,5.33
2019-02-24T07:40:41.766Z,4.77
2019-02-24T07:43:29.348Z,5.40
2019-02-24T07:46:16.673Z,6.83
2019-02-24T07:49:04.101Z,5.97
2019-02-24T07:51:51.818Z,5.27
2019-02-24T07:54:38.925Z,4.90
2019-02-24T07:57:26.570Z,6.63
2019-02-24T08:00:14.178Z,5.20
2019-02-24T08:03:01.466Z,5.20
2019-02-24T08:05:49.302Z,5.37
2019-02-24T08:08:36.598Z,4.53
2019-02-24T08:11:24.388Z,6.50
2019-02-24T08:14:12.076Z,5.53
2019-02-24T08:16:59.844Z,5.23
2019-02-24T08:19:47.506Z,6.03
2019-02-24T08:22:35.169Z,4.97
2019-02-24T08:25:25.654Z,4.93
2019-02-24T08:28:29.544Z,5.43
2019-02-24T08:31:18.527Z,5.20
2019-02-24T08:34:06.513Z,5.20
2019-02-24T08:36:58.580Z,5.10
2019-02-24T08:39:51.961Z,5.70
2019-02-24T08:42:56.797Z,5.10
2019-02-24T08:45:46.728Z,5.63
2019-02-24T08:48:39.116Z,5.30
2019-02-24T08:51:34.443Z,4.87
2019-02-24T08:54:31.772Z,5.20
2019-02-24T08:57:46.048Z,5.63
2019-02-24T09:00:54.551Z,4.50
2019-02-24T09:03:49.150Z,4.93
2019-02-24T09:06:48.547Z,4.53
2019-02-24T09:09:53.381Z,4.80
2019-02-24T09:12:43.777Z,4.87
2019-02-24T09:15:44.601Z,4.60
2019-02-24T09:18:36.261Z,5.37
2019-02-24T09:21:33.811Z,5.03
2019-02-24T09:24:39.959Z,4.93
2019-02-24T09:27:30.077Z,4.53
2019-02-24T09:30:42.661Z,5.23
2019-02-24T09:33:36.343Z,5.63
2019-02-24T09:36:30.024Z,4.43
2019-02-24T09:39:25.533Z,4.63
2019-02-24T09:42:21.478Z,5.47
2019-02-24T09:45:35.418Z,4.60
2019-02-24T09:48:24.985Z,5.77
2019-02-24T09:51:17.014Z,4.33
2019-02-24T09:54:14.676Z,4.97
2019-02-24T09:57:09.491Z,4.80
2019-02-24T10:00:03.899Z,5.03
2019-02-24T10:02:54.772Z,4.00
2019-02-24T10:05:50.711Z,4.87
2019-02-24T10:08:53.999Z,4.60
2019-02-24T10:11:47.658Z,3.83
2019-02-24T10:14:38.362Z,4.03
2019-02-24T10:17:30.879Z,4.60
2019-02-24T10:20:28.069Z,4.43
2019-02-24T10:23:36.165Z,4.83
2019-02-24T10:26:27.566Z,4.60
2019-02-24T10:29:22.429Z,4.37
2019-02-24T10:32:13.304Z,4.40
2019-02-24T10:35:13.837Z,3.70
2019-02-24T10:38:08.330Z,4.20
2019-02-24T10:40:56.665Z,4.77
2019-02-24T10:43:48.798Z,4.40
2019-02-24T10:46:37.870Z,5.03
2019-02-24T10:49:25.808Z,6.23
2019-02-24T10:52:14.256Z,5.37
2019-02-24T10:58:42.558Z,4.50
2019-02-24T11:01:32.154Z,4.47
2019-02-24T11:04:24.576Z,5.30
2019-02-24T11:07:18.768Z,5.90
2019-02-24T11:10:11.775Z,3.53
2019-02-24T11:13:00.894Z,3.17
2019-02-24T11:15:51.700Z,3.40
2019-02-24T11:18:39.409Z,2.97
2019-02-24T11:21:27.277Z,3.33
2019-02-24T11:24:23.198Z,3.10
2019-02-24T11:28:19.211Z,2.80
2019-02-24T11:30:10.132Z,3.03
2019-02-24T11:33:01.652Z,3.13
2019-02-24T11:35:57.480Z,3.10
2019-02-24T11:38:50.001Z,3.40
2019-02-24T11:41:40.088Z,2.70
2019-02-24T11:44:35.518Z,2.70
2019-02-24T11:47:31.106Z,2.70
2019-02-24T11:50:47.116Z,2.40
2019-02-24T11:53:39.450Z,2.43
2019-02-24T11:56:32.512Z,2.60
2019-02-24T11:59:20.009Z,2.23
2019-02-24T12:02:14.937Z,2.20
2019-02-24T12:05:02.810Z,2.40
2019-02-24T12:07:55.021Z,2.20
2019-02-24T12:10:42.762Z,2.23
2019-02-24T12:13:30.204Z,2.27
2019-02-24T12:16:17.274Z,2.33
2019-02-24T12:19:04.460Z,2.40
2019-02-24T12:21:51.952Z,2.00
2019-02-24T12:24:39.389Z,2.00
2019-02-24T12:27:27.049Z,2.17
2019-02-24T12:30:14.715Z,2.00
2019-02-24T12:33:01.946Z,1.97
2019-02-24T12:35:49.825Z,2.00
2019-02-24T12:38:37.242Z,2.57
2019-02-24T12:41:25.381Z,2.30
2019-02-24T12:44:13.121Z,2.37
2019-02-24T12:47:00.753Z,1.80
2019-02-24T12:49:48.371Z,1.87
2019-02-24T12:52:36.717Z,2.40
2019-02-24T12:55:24.237Z,1.90
2019-02-24T12:58:11.391Z,2.00
2019-02-24T13:00:59.354Z,2.60
2019-02-24T13:03:46.500Z,2.03
2019-02-24T13:06:33.973Z,2.00
2019-02-24T13:09:21.745Z,2.20
2019-02-24T13:12:09.289Z,1.90
2019-02-24T13:14:57.101Z,1.80
2019-02-24T13:17:44.829Z,2.00
2019-02-24T13:20:32.653Z,2.00
2019-02-24T13:23:19.810Z,2.10
2019-02-24T13:26:07.096Z,1.90
2019-02-24T13:28:54.815Z,1.80
2019-02-24T13:31:42.286Z,3.10
2019-02-24T13:34:30.796Z,2.00
2019-02-24T13:37:18.473Z,1.90
2019-02-24T13:40:07.047Z,1.97
2019-02-24T13:42:54.873Z,2.30
2019-02-24T13:45:42.871Z,2.40
2019-02-24T13:48:31.018Z,2.30
2019-02-24T13:51:18.393Z,2.50
2019-02-24T13:54:06.222Z,2.40
2019-02-24T13:56:53.826Z,2.50
2019-02-24T13:59:41.233Z,2.13
2019-02-24T14:02:28.644Z,2.17
2019-02-24T14:05:16.134Z,2.20
2019-02-24T14:08:03.215Z,4.00
2019-02-24T14:10:50.357Z,2.20
2019-02-24T14:13:38.237Z,1.97
2019-02-24T14:16:25.985Z,1.83
2019-02-24T14:19:13.246Z,1.93
2019-02-24T14:22:00.997Z,2.03
2019-02-24T14:24:48.212Z,1.83
2019-02-24T14:27:36.010Z,1.93
2019-02-24T14:30:23.852Z,1.60
2019-02-24T14:33:11.238Z,1.77
2019-02-24T14:35:58.917Z,1.90
2019-02-24T14:38:45.965Z,1.60
2019-02-24T14:41:33.385Z,1.70
2019-02-24T14:44:21.502Z,1.43
2019-02-24T14:47:09.307Z,1.73
2019-02-24T14:49:57.227Z,1.50
2019-02-24T14:52:44.976Z,1.73
2019-02-24T14:55:32.842Z,1.80
2019-02-24T14:58:20.299Z,1.70
2019-02-24T15:01:07.963Z,1.50
2019-02-24T15:03:55.481Z,1.77
2019-02-24T15:06:43.406Z,1.90
2019-02-24T15:09:30.921Z,2.00
2019-02-24T15:12:18.250Z,2.00
2019-02-24T15:15:06.594Z,1.50
2019-02-24T15:17:56.651Z,1.80
2019-02-24T15:20:43.449Z,1.80
2019-02-24T15:23:30.716Z,1.77
2019-02-24T15:26:18.391Z,1.57
2019-02-24T15:29:05.733Z,2.17
2019-02-24T15:31:54.278Z,3.27
2019-02-24T15:34:42.457Z,2.17
2019-02-24T15:37:30.217Z,2.07
2019-02-24T15:40:17.596Z,1.77
2019-02-24T15:43:05.165Z,1.93
2019-02-24T15:45:52.790Z,1.57
2019-02-24T15:48:40.516Z,1.90
2019-02-24T15:51:29.803Z,2.57
2019-02-24T15:54:16.982Z,1.67
2019-02-24T15:57:04.932Z,2.13
2019-02-24T15:59:52.735Z,1.70
2019-02-24T16:02:40.234Z,1.90
2019-02-24T16:05:27.626Z,2.30
2019-02-24T16:08:15.281Z,2.03
2019-02-24T16:11:02.683Z,2.00
2019-02-24T16:13:50.119Z,2.27
2019-02-24T16:16:37.830Z,1.80
2019-02-24T16:19:25.709Z,2.00
2019-02-24T16:22:13.430Z,2.00
2019-02-24T16:25:00.889Z,2.00
2019-02-24T16:27:48.397Z,2.00
2019-02-24T16:30:36.349Z,2.30
2019-02-24T16:33:24.109Z,2.00
2019-02-24T16:36:11.922Z,2.27
2019-02-24T16:38:59.710Z,2.13
2019-02-24T16:41:49.892Z,2.10
2019-02-24T16:44:38.360Z,2.07
2019-02-24T16:47:27.845Z,2.03
2019-02-24T16:50:23.146Z,2.07
2019-02-24T16:53:10.561Z,2.30
2019-02-24T16:55:58.908Z,2.20
2019-02-24T16:58:47.469Z,2.17
2019-02-24T17:01:36.016Z,2.20
2019-02-24T17:04:28.572Z,1.97
2019-02-24T17:07:16.400Z,2.10
2019-02-24T17:10:04.456Z,2.20
2019-02-24T17:12:52.011Z,2.47
2019-02-24T17:15:39.708Z,2.20
2019-02-24T17:18:27.527Z,2.10
2019-02-24T17:21:15.403Z,2.20
2019-02-24T17:24:02.872Z,3.73
2019-02-24T17:26:50.509Z,2.27
2019-02-24T17:29:37.945Z,4.50
2019-02-24T17:32:25.654Z,2.83
2019-02-24T17:35:13.556Z,3.43
2019-02-24T17:38:01.097Z,4.80
2019-02-24T17:40:48.197Z,6.43
2019-02-24T17:43:35.296Z,5.90
2019-02-24T17:46:22.911Z,6.30
2019-02-24T17:49:10.321Z,5.50
2019-02-24T17:51:57.733Z,4.63
2019-02-24T17:54:45.172Z,5.17
2019-02-24T17:57:33.006Z,6.00
2019-02-24T18:00:25.905Z,4.03
2019-02-24T18:03:13.535Z,4.07
2019-02-24T18:06:01.207Z,3.80
2019-02-24T18:08:48.692Z,3.13
2019-02-24T18:11:36.127Z,4.43
2019-02-24T18:14:23.689Z,4.13
2019-02-24T18:17:11.136Z,3.23
2019-02-24T18:19:58.515Z,4.27
2019-02-24T18:22:45.902Z,3.13
2019-02-24T18:25:33.393Z,3.60
2019-02-24T18:28:20.830Z,3.57
2019-02-24T18:31:07.971Z,3.47
2019-02-24T18:33:55.462Z,3.80
2019-02-24T18:36:42.983Z,4.53
2019-02-24T18:39:30.252Z,3.27
2019-02-24T18:42:18.352Z,3.43
2019-02-24T18:45:06.093Z,7.07
2019-02-24T18:47:53.763Z,3.77
2019-02-24T18:50:41.701Z,3.83
2019-02-24T18:53:29.477Z,6.73
2019-02-24T18:56:17.161Z,4.43
2019-02-24T18:59:05.370Z,4.37
2019-02-24T19:01:53.655Z,3.07
2019-02-24T19:04:41.614Z,2.90
2019-02-24T19:07:29.077Z,3.60
2019-02-24T19:10:16.783Z,3.20
2019-02-24T19:13:05.073Z,2.90
2019-02-24T19:15:52.735Z,3.30
2019-02-24T19:18:40.061Z,4.37
2019-02-24T19:21:27.713Z,3.57
2019-02-24T19:24:14.799Z,3.10
2019-02-24T19:27:01.886Z,3.77
2019-02-24T19:29:49.634Z,3.80
2019-02-24T19:32:37.250Z,3.50
2019-02-24T19:35:27.373Z,3.60
2019-02-24T19:38:14.588Z,4.80
2019-02-24T19:41:02.263Z,3.93
2019-02-24T19:43:50.033Z,4.93
2019-02-24T19:46:38.123Z,4.53
2019-02-24T19:49:25.795Z,4.27
2019-02-24T19:52:13.318Z,4.17
2019-02-24T19:55:00.761Z,5.43
2019-02-24T19:57:55.872Z,4.87
2019-02-24T20:00:47.905Z,4.23
2019-02-24T20:03:35.378Z,5.23
2019-02-24T20:06:22.500Z,4.40
2019-02-24T20:09:10.681Z,4.83
2019-02-24T20:11:58.202Z,7.20
2019-02-24T20:14:45.859Z,4.60
2019-02-24T20:17:33.347Z,4.60
2019-02-24T20:20:21.079Z,7.27
2019-02-24T20:23:08.911Z,4.80
2019-02-24T20:25:56.293Z,4.60
2019-02-24T20:28:43.358Z,4.90
2019-02-24T20:31:30.812Z,5.50
2019-02-24T20:34:25.313Z,5.13
2019-02-24T20:37:08.018Z,6.70
2019-02-24T20:39:55.379Z,5.87
2019-02-24T20:42:42.435Z,7.00
2019-02-24T20:45:29.586Z,5.00
2019-02-24T20:48:17.340Z,6.13
2019-02-24T20:51:04.592Z,5.60
2019-02-24T20:53:51.886Z,4.90
2019-02-24T20:56:39.268Z,6.10
2019-02-24T20:59:26.581Z,5.77
2019-02-24T21:02:13.714Z,7.13
2019-02-24T21:05:01.134Z,6.67
2019-02-24T21:07:48.887Z,7.63
2019-02-24T21:10:36.715Z,6.57
2019-02-24T21:13:24.747Z,7.07
2019-02-24T21:16:12.525Z,5.40
2019-02-24T21:19:00.463Z,6.77
2019-02-24T21:21:47.826Z,5.30
2019-02-24T21:24:35.012Z,5.87
2019-02-24T21:27:22.570Z,8.37
2019-02-24T21:30:12.048Z,5.87
2019-02-24T21:32:59.419Z,5.10
2019-02-24T21:35:47.268Z,7.13
2019-02-24T21:38:34.622Z,5.50
2019-02-24T21:41:21.971Z,4.93
2019-02-24T21:44:09.592Z,5.23
2019-02-24T21:46:57.196Z,8.77
2019-02-24T21:49:44.578Z,6.57
2019-02-24T21:52:32.502Z,7.23
2019-02-24T21:55:20.389Z,6.43
2019-02-24T21:58:08.055Z,6.80
2019-02-24T22:00:55.660Z,6.53
2019-02-24T22:03:43.430Z,8.17
2019-02-24T22:06:31.357Z,6.97
2019-02-24T22:09:19.070Z,9.30
2019-02-24T22:12:07.004Z,7.03
2019-02-24T22:14:55.064Z,8.33
2019-02-24T22:17:43.504Z,8.60
2019-02-24T22:20:30.886Z,8.10
2019-02-24T22:23:18.256Z,7.70
2019-02-24T22:26:05.513Z,6.70
2019-02-24T22:28:52.934Z,6.23
2019-02-24T22:31:40.477Z,7.20
2019-02-24T22:34:28.065Z,8.70
2019-02-24T22:37:15.865Z,8.30
2019-02-24T22:40:03.369Z,6.57
2019-02-24T22:42:50.737Z,6.47
2019-02-24T22:45:38.428Z,7.63
2019-02-24T22:48:26.205Z,6.10
2019-02-24T22:51:13.618Z,6.83
2019-02-24T22:54:01.265Z,6.37
2019-02-24T22:56:49.058Z,9.03
2019-02-24T22:59:36.438Z,8.00
2019-02-24T23:02:24.227Z,7.63
2019-02-24T23:05:13.061Z,6.77
2019-02-24T23:08:00.805Z,6.53
2019-02-24T23:10:48.562Z,7.03
2019-02-24T23:13:36.513Z,8.67
2019-02-24T23:16:24.194Z,7.93
2019-02-24T23:19:12.763Z,7.27
2019-02-24T23:21:59.943Z,6.87
2019-02-24T23:24:47.387Z,6.57
2019-02-24T23:27:35.102Z,5.67
2019-02-24T23:30:22.656Z,7.90
2019-02-24T23:33:10.003Z,7.30
2019-02-24T23:35:57.727Z,5.50
2019-02-24T23:38:45.441Z,13.53
2019-02-24T23:41:33.409Z,11.43
2019-02-24T23:44:21.231Z,12.67
2019-02-24T23:47:08.881Z,11.10
2019-02-24T23:49:56.483Z,9.17
2019-02-24T23:52:44.003Z,10.70
2019-02-24T23:55:31.708Z,9.80
2019-02-24T23:58:19.653Z,9.10
